Welcome to Des Moines Iowa Weather. I am an independent private personal weather station on the Northwest Side of Des Moines, Iowa. Just East of Windsor Heights and just West of Glendale . This site is also mobile friendly.

There are no active watches, warnings or advisories


Visit our other weather sites:

Historical Data

Weather Station Setup



Weather Underground History page Text

Daily Summary for June 18, 2017 Units:  English    Metric   Both
« Previous Day
Next Day »
Daily Weekly Monthly Yearly Custom
  High: Low: Average:
Temperature: 80.2 °F 61.3 °F 70.2 °F
Dew Point: 60.0 °F 54.0 °F 56.8 °F
Humidity: 83 % 41 % 64 %
Wind Speed: 8.0 mph 0.0 mph 1.8 mph
Wind Gust: 15.0 mph - -
Wind:- - SSW
Pressure: 29.84 in 29.64 in -
Precipitation: 0.00 in    
Historical Graphs
 
 
Tabular Data for June 18, 2017
Time Temperature Dew Point Pressure Wind Wind Speed Wind Gust Humidity Rainfall Rate (Hourly)
00:02 68.9 °F 60.0 °F 29.64 in Calm   3.0 mph 72 % 0.00 in
00:17 68.2 °F 59.0 °F 29.65 in Calm   3.0 mph 73 % 0.00 in
00:32 67.7 °F 60.0 °F 29.66 in Calm   4.0 mph 76 % 0.00 in
00:47 67.2 °F 60.0 °F 29.66 in WNW 1.0 mph 3.0 mph 77 % 0.00 in
01:02 66.8 °F 60.0 °F 29.67 in Calm     79 % 0.00 in
01:17 66.4 °F 60.0 °F 29.66 in Calm     80 % 0.00 in
01:32 65.9 °F 60.0 °F 29.67 in Calm   2.0 mph 81 % 0.00 in
01:47 65.4 °F 59.0 °F 29.67 in Calm     81 % 0.00 in
02:02 64.9 °F 59.0 °F 29.67 in Calm     82 % 0.00 in
02:17 64.5 °F 59.0 °F 29.67 in Calm   3.0 mph 83 % 0.00 in
02:33 64.2 °F 59.0 °F 29.67 in Calm   2.0 mph 83 % 0.00 in
02:47 63.8 °F 59.0 °F 29.67 in SW 1.0 mph 6.0 mph 83 % 0.00 in
03:02 63.6 °F 58.0 °F 29.67 in SSE 1.0 mph 6.0 mph 82 % 0.00 in
03:17 63.6 °F 58.0 °F 29.66 in North 1.0 mph 5.0 mph 81 % 0.00 in
03:32 63.4 °F 58.0 °F 29.66 in Calm   5.0 mph 81 % 0.00 in
03:48 63.1 °F 57.0 °F 29.66 in NNW 2.0 mph 9.0 mph 81 % 0.00 in
04:03 62.7 °F 57.0 °F 29.66 in SSW 1.0 mph 6.0 mph 81 % 0.00 in
04:18 62.4 °F 57.0 °F 29.67 in North 2.0 mph 8.0 mph 81 % 0.00 in
04:33 62.2 °F 56.0 °F 29.67 in SW 1.0 mph 8.0 mph 81 % 0.00 in
04:48 61.9 °F 56.0 °F 29.67 in NNE 1.0 mph 10.0 mph 80 % 0.00 in
05:03 61.6 °F 55.0 °F 29.67 in Calm   6.0 mph 80 % 0.00 in
05:18 61.4 °F 55.0 °F 29.67 in West 1.0 mph 7.0 mph 80 % 0.00 in
05:33 61.5 °F 55.0 °F 29.68 in NW 4.0 mph 9.0 mph 80 % 0.00 in
05:48 61.4 °F 55.0 °F 29.69 in Calm   6.0 mph 80 % 0.00 in
06:03 61.4 °F 55.0 °F 29.70 in West 7.0 mph 9.0 mph 80 % 0.00 in
06:18 61.3 °F 55.0 °F 29.71 in Calm   3.0 mph 80 % 0.00 in
06:34 61.4 °F 56.0 °F 29.71 in SSW 2.0 mph 9.0 mph 81 % 0.00 in
06:48 61.8 °F 56.0 °F 29.72 in Calm   7.0 mph 81 % 0.00 in
07:03 62.0 °F 56.0 °F 29.72 in NW 2.0 mph 9.0 mph 80 % 0.00 in
07:18 62.3 °F 56.0 °F 29.74 in ESE 2.0 mph 6.0 mph 80 % 0.00 in
07:33 62.7 °F 56.0 °F 29.74 in West 1.0 mph 8.0 mph 79 % 0.00 in
07:48 63.1 °F 56.0 °F 29.74 in NE 4.0 mph 12.0 mph 78 % 0.00 in
08:03 63.6 °F 56.0 °F 29.74 in NNW 8.0 mph 8.0 mph 77 % 0.00 in
08:18 64.1 °F 57.0 °F 29.74 in Calm   8.0 mph 77 % 0.00 in
08:33 64.7 °F 57.0 °F 29.74 in East 2.0 mph 6.0 mph 76 % 0.00 in
08:48 65.4 °F 57.0 °F 29.75 in North 4.0 mph 8.0 mph 75 % 0.00 in
09:03 65.9 °F 57.0 °F 29.75 in NNW 3.0 mph 6.0 mph 74 % 0.00 in
09:18 66.3 °F 58.0 °F 29.76 in NW 2.0 mph 8.0 mph 74 % 0.00 in
09:33 67.2 °F 59.0 °F 29.76 in WSW 1.0 mph 6.0 mph 74 % 0.00 in
09:48 67.6 °F 58.0 °F 29.76 in West 2.0 mph 9.0 mph 72 % 0.00 in
10:03 68.1 °F 59.0 °F 29.77 in Calm   8.0 mph 72 % 0.00 in
10:18 68.7 °F 59.0 °F 29.77 in Calm   8.0 mph 70 % 0.00 in
10:33 69.4 °F 58.0 °F 29.77 in NE 4.0 mph 11.0 mph 68 % 0.00 in
10:49 70.3 °F 59.0 °F 29.77 in NW 2.0 mph 6.0 mph 67 % 0.00 in
11:03 71.3 °F 60.0 °F 29.77 in North 1.0 mph 9.0 mph 67 % 0.00 in
11:19 72.0 °F 59.0 °F 29.77 in NNE 1.0 mph 10.0 mph 64 % 0.00 in
11:34 72.5 °F 59.0 °F 29.77 in ENE 5.0 mph 9.0 mph 63 % 0.00 in
11:49 73.1 °F 59.0 °F 29.77 in Calm   10.0 mph 62 % 0.00 in
12:04 74.5 °F 60.0 °F 29.76 in NNE 8.0 mph 10.0 mph 60 % 0.00 in
12:19 74.5 °F 58.0 °F 29.75 in Calm   8.0 mph 57 % 0.00 in
12:34 75.2 °F 58.0 °F 29.75 in NNW 6.0 mph 11.0 mph 56 % 0.00 in
12:49 75.6 °F 58.0 °F 29.75 in NW 2.0 mph 10.0 mph 55 % 0.00 in
13:04 75.7 °F 58.0 °F 29.75 in West 3.0 mph 12.0 mph 54 % 0.00 in
13:19 76.6 °F 59.0 °F 29.75 in NNE 2.0 mph 10.0 mph 54 % 0.00 in
13:34 76.7 °F 58.0 °F 29.74 in NNW 3.0 mph 13.0 mph 52 % 0.00 in
13:49 76.8 °F 57.0 °F 29.74 in NW 1.0 mph 8.0 mph 51 % 0.00 in
14:04 77.6 °F 59.0 °F 29.74 in WSW 1.0 mph 4.0 mph 53 % 0.00 in
14:19 78.4 °F 59.0 °F 29.74 in West 6.0 mph 9.0 mph 52 % 0.00 in
14:34 77.7 °F 57.0 °F 29.75 in East 4.0 mph 10.0 mph 49 % 0.00 in
14:49 77.0 °F 57.0 °F 29.74 in NNE 4.0 mph 10.0 mph 50 % 0.00 in
15:04 79.1 °F 58.0 °F 29.74 in NNW 4.0 mph 9.0 mph 49 % 0.00 in
15:19 79.1 °F 59.0 °F 29.74 in NNW 3.0 mph 8.0 mph 50 % 0.00 in
15:34 79.5 °F 57.0 °F 29.74 in NW 4.0 mph 11.0 mph 46 % 0.00 in
15:49 79.7 °F 57.0 °F 29.74 in NNW 4.0 mph 6.0 mph 46 % 0.00 in
16:04 79.6 °F 57.0 °F 29.74 in South 2.0 mph 13.0 mph 46 % 0.00 in
16:19 79.1 °F 58.0 °F 29.74 in NNE 6.0 mph 8.0 mph 49 % 0.00 in
16:34 78.7 °F 56.0 °F 29.74 in NNE 3.0 mph 10.0 mph 46 % 0.00 in
16:49 79.1 °F 58.0 °F 29.73 in ESE 2.0 mph 3.0 mph 49 % 0.00 in
17:04 79.6 °F 56.0 °F 29.73 in South 2.0 mph 7.0 mph 45 % 0.00 in
17:19 80.2 °F 56.0 °F 29.73 in NNW 3.0 mph 8.0 mph 43 % 0.00 in
17:34 79.9 °F 54.0 °F 29.74 in NNW 3.0 mph 8.0 mph 41 % 0.00 in
17:49 78.8 °F 55.0 °F 29.74 in NNW 1.0 mph 8.0 mph 44 % 0.00 in
18:04 78.9 °F 56.0 °F 29.74 in NE 5.0 mph 7.0 mph 45 % 0.00 in
18:19 78.6 °F 55.0 °F 29.74 in SE 2.0 mph 9.0 mph 45 % 0.00 in
18:34 78.0 °F 55.0 °F 29.74 in NW 2.0 mph 5.0 mph 45 % 0.00 in
18:49 77.5 °F 54.0 °F 29.75 in Calm   8.0 mph 45 % 0.00 in
19:04 76.8 °F 54.0 °F 29.75 in North 2.0 mph 11.0 mph 46 % 0.00 in
19:19 76.4 °F 54.0 °F 29.75 in NNW 3.0 mph 9.0 mph 46 % 0.00 in
19:34 76.1 °F 54.0 °F 29.76 in WNW 2.0 mph 10.0 mph 47 % 0.00 in
19:49 75.7 °F 54.0 °F 29.76 in Calm   7.0 mph 47 % 0.00 in
20:04 75.3 °F 54.0 °F 29.77 in NNE 6.0 mph 6.0 mph 48 % 0.00 in
20:19 74.9 °F 54.0 °F 29.76 in NE 1.0 mph 5.0 mph 48 % 0.00 in
20:34 74.4 °F 54.0 °F 29.77 in Calm   3.0 mph 50 % 0.00 in
20:49 73.7 °F 54.0 °F 29.77 in Calm   4.0 mph 50 % 0.00 in
21:05 73.2 °F 54.0 °F 29.77 in Calm     52 % 0.00 in
21:19 72.5 °F 54.0 °F 29.77 in Calm   1.0 mph 53 % 0.00 in
21:34 71.7 °F 54.0 °F 29.78 in Calm     54 % 0.00 in
21:50 70.8 °F 55.0 °F 29.79 in Calm     57 % 0.00 in
22:05 69.9 °F 55.0 °F 29.80 in Calm     59 % 0.00 in
22:20 69.0 °F 55.0 °F 29.80 in Calm     61 % 0.00 in
22:35 68.1 °F 54.0 °F 29.81 in Calm     62 % 0.00 in
22:50 67.4 °F 55.0 °F 29.81 in Calm     64 % 0.00 in
23:05 66.8 °F 55.0 °F 29.83 in North 2.0 mph 3.0 mph 65 % 0.00 in
23:20 66.6 °F 54.0 °F 29.83 in ENE 3.0 mph 15.0 mph 65 % 0.00 in
23:35 65.9 °F 55.0 °F 29.84 in ENE 2.0 mph 7.0 mph 67 % 0.00 in
23:50 65.3 °F 54.0 °F 29.83 in Calm   3.0 mph 68 % 0.00 in
Des Moines Weather and Climate
Compliments of Weather Underground - 3 mb

Script developed by  Jim McMurry - jmcmurry@mwt.net Adapted for the template by  Wim van der Kuil - Leuven-Template.eu

You find our weather info also at:

Weather Underground

Equipment we use:

Weather-station
Davis VP2 Plus

Weather-program
Davis Weatherlink.Com

Weather-server
iMac (Retina 4K, 21.5-inch, Late 2015)

Provider
Hostmonster.com

Davis VP2 Plus

Davis Weatherlink.Com

iMac (Retina 4K, 21.5-inch, Late 2015)

Hostmonster.com